Time;durP1;ratioP1;P1;durP2;ratioP2;P2;SDS_P1;SDS_P2;PMS_P1;PMS_P2;Temp;Humidity;BMP_temperature;BMP_pressure;BME280_temperature;BME280_humidity;BME280_pressure;Samples;Min_cycle;Max_cycle;Signal;HPM_P1;HPM_P2
2022/03/26 00:01:38;;;;;;;;;54.00;42.75;;;;;12.98;83.50;102207.28;4994612;28;45516;-74
2022/03/26 00:04:03;;;;;;;;;55.25;42.50;;;;;12.98;83.32;102209.13;4994678;28;45092;-75
2022/03/26 00:06:29;;;;;;;;;52.50;42.00;;;;;12.89;82.22;102196.84;4994297;28;45746;-80
2022/03/26 00:08:54;;;;;;;;;61.75;44.25;;;;;12.94;82.93;102211.13;4976617;28;45529;-76
2022/03/26 00:11:20;;;;;;;;;55.00;42.50;;;;;12.92;86.42;102215.75;4994833;28;45138;-77
2022/03/26 00:13:46;;;;;;;;;43.00;38.00;;;;;12.90;81.82;102214.09;4994981;28;45623;-75
2022/03/26 00:16:11;;;;;;;;;58.50;44.00;;;;;12.65;84.54;102168.13;4993672;28;45212;-77
2022/03/26 00:18:38;;;;;;;;;53.25;40.75;;;;;12.11;81.85;102075.47;4994994;28;45181;-77
2022/03/26 00:21:03;;;;;;;;;53.00;43.25;;;;;12.83;83.57;102205.38;4994823;28;45267;-77
2022/03/26 00:23:29;;;;;;;;;52.00;40.75;;;;;12.73;86.78;102194.03;4995611;28;45196;-80
2022/03/26 00:25:58;;;;;;;;;53.25;43.00;;;;;12.42;86.95;102150.25;4994332;28;45196;-75
2022/03/26 00:28:23;;;;;;;;;56.50;43.50;;;;;12.39;87.07;102144.94;4994630;28;45149;-76
2022/03/26 00:30:49;;;;;;;;;53.25;42.25;;;;;12.63;83.01;102189.16;4993949;28;45280;-80
2022/03/26 00:33:14;;;;;;;;;52.25;43.50;;;;;12.70;84.59;102202.38;4994343;28;45251;-76
2022/03/26 00:35:39;;;;;;;;;53.75;42.00;;;;;12.48;86.21;102165.41;4975890;28;47242;-75
2022/03/26 00:38:05;;;;;;;;;58.50;41.75;;;;;12.68;87.99;102204.31;4994095;28;45261;-75
2022/03/26 00:40:31;;;;;;;;;54.25;41.50;;;;;11.42;85.96;101991.81;4994539;28;45225;-76
2022/03/26 00:42:56;;;;;;;;;52.50;42.25;;;;;12.64;89.77;102210.91;4992432;28;45249;-77
2022/03/26 00:45:24;;;;;;;;;51.50;43.00;;;;;12.33;85.77;102145.28;4993569;28;45633;-76
2022/03/26 00:47:49;;;;;;;;;56.25;42.25;;;;;12.28;84.74;102147.34;4994078;28;45773;-76
2022/03/26 00:50:15;;;;;;;;;53.00;42.75;;;;;12.59;85.50;102203.91;4994273;28;45130;-76
2022/03/26 00:52:40;;;;;;;;;57.00;44.00;;;;;12.56;86.81;102199.50;4994340;28;45012;-75
2022/03/26 00:55:06;;;;;;;;;43.25;36.00;;;;;12.52;87.24;102206.09;4994049;28;45270;-76
2022/03/26 00:57:31;;;;;;;;;54.25;42.00;;;;;11.78;91.82;102078.09;4991494;28;45171;-76
2022/03/26 00:59:58;;;;;;;;;50.75;41.75;;;;;12.51;86.90;102206.16;4990290;28;45265;-78
2022/03/26 01:02:24;;;;;;;;;53.75;43.00;;;;;12.25;93.12;102158.41;4990513;28;45162;-76
2022/03/26 01:04:50;;;;;;;;;53.25;42.25;;;;;12.46;93.18;102203.66;4990456;28;45534;-76
2022/03/26 01:07:15;;;;;;;;;53.50;42.00;;;;;12.45;88.59;102202.78;4990420;28;45066;-75
2022/03/26 01:09:41;;;;;;;;;53.25;39.25;;;;;12.43;87.54;102192.94;4990824;28;45106;-76
2022/03/26 01:12:07;;;;;;;;;56.25;41.75;;;;;12.40;87.24;102193.94;4990804;28;45071;-77
2022/03/26 01:14:33;;;;;;;;;55.25;41.25;;;;;11.93;87.00;102120.94;4990109;28;45297;-77
2022/03/26 01:17:00;;;;;;;;;50.25;42.25;;;;;11.80;86.38;102102.50;4990399;28;45288;-76
2022/03/26 01:19:25;;;;;;;;;59.50;42.75;;;;;12.23;92.97;102187.63;4990017;28;45100;-74
2022/03/26 01:21:51;;;;;;;;;53.75;42.50;;;;;12.29;99.51;102196.34;4990685;28;45261;-76
2022/03/26 01:24:16;;;;;;;;;49.75;40.00;;;;;11.49;97.35;102049.59;4990001;28;45039;-74
2022/03/26 01:26:41;;;;;;;;;52.25;43.50;;;;;12.11;89.33;102154.53;4990207;28;45096;-75
2022/03/26 01:29:09;;;;;;;;;54.00;42.00;;;;;12.29;90.48;102190.03;4990496;28;45284;-76
2022/03/26 01:31:34;;;;;;;;;50.25;41.00;;;;;12.20;94.12;102177.72;4991508;28;45229;-75
2022/03/26 01:34:00;;;;;;;;;57.67;41.33;;;;;12.25;95.92;102189.28;4993363;28;45167;-75
2022/03/26 01:36:28;;;;;;;;;54.00;43.00;;;;;11.79;91.13;102111.66;4992510;28;45089;-75
2022/03/26 01:38:53;;;;;;;;;46.75;35.50;;;;;11.81;89.55;102121.53;4990586;28;45157;-75
2022/03/26 01:41:20;;;;;;;;;53.50;41.50;;;;;12.19;90.67;102185.03;4980351;28;45044;-74
2022/03/26 01:43:46;;;;;;;;;55.00;42.75;;;;;10.79;88.49;101964.13;4989560;28;45240;-77
2022/03/26 01:46:11;;;;;;;;;47.75;37.50;;;;;12.12;91.23;102178.13;4989610;28;45209;-76
2022/03/26 01:48:38;;;;;;;;;54.00;43.75;;;;;12.13;90.19;102181.75;4990310;28;45274;-75
2022/03/26 01:51:14;;;;;;;;;57.00;45.50;;;;;12.10;91.77;102179.16;4989599;28;45147;-75
2022/03/26 01:53:50;;;;;;;;;58.75;45.25;;;;;11.97;97.73;102165.28;4983803;28;45557;-77
2022/03/26 01:56:17;;;;;;;;;51.25;41.00;;;;;12.06;98.71;102172.97;4989249;28;45291;-75
2022/03/26 01:58:43;;;;;;;;;49.75;37.75;;;;;12.04;92.11;102174.03;4989934;28;45193;-76
2022/03/26 02:01:09;;;;;;;;;58.50;46.75;;;;;12.03;91.64;102169.53;4989518;28;45922;-75
2022/03/26 02:03:35;;;;;;;;;49.25;39.50;;;;;11.92;95.78;102164.63;4989593;28;45457;-77
2022/03/26 02:06:01;;;;;;;;;50.00;39.50;;;;;11.74;95.50;102130.09;4989497;28;45135;-75
2022/03/26 02:08:27;;;;;;;;;61.75;46.50;;;;;11.41;94.64;102085.38;4988989;28;45474;-78
2022/03/26 02:10:53;;;;;;;;;61.50;43.50;;;;;11.74;98.40;102144.59;4989387;28;45051;-76
2022/03/26 02:13:18;;;;;;;;;54.00;42.50;;;;;10.95;94.04;101996.00;4989008;28;45591;-77
2022/03/26 02:15:44;;;;;;;;;55.50;40.75;;;;;11.86;96.91;102171.28;4989243;28;45302;-76
2022/03/26 02:18:10;;;;;;;;;56.00;41.75;;;;;11.84;94.66;102172.28;4990011;28;45323;-75
2022/03/26 02:20:37;;;;;;;;;50.75;43.00;;;;;11.33;99.35;102087.59;4989753;28;45183;-77
2022/03/26 02:23:03;;;;;;;;;60.75;43.00;;;;;11.02;96.88;102028.31;4989418;28;45189;-75
2022/03/26 02:25:28;;;;;;;;;49.75;41.25;;;;;11.23;94.72;102075.38;4989556;28;45285;-76
2022/03/26 02:27:54;;;;;;;;;56.00;44.50;;;;;11.40;94.19;102113.56;4989529;28;45186;-75
2022/03/26 02:30:21;;;;;;;;;59.50;44.75;;;;;11.64;97.84;102148.72;4988729;28;45170;-75
2022/03/26 02:32:46;;;;;;;;;53.50;40.00;;;;;11.24;95.76;102071.69;4989261;28;45767;-77
2022/03/26 02:35:12;;;;;;;;;56.75;46.00;;;;;11.35;98.09;102092.94;4989679;28;45267;-75
2022/03/26 02:37:38;;;;;;;;;52.75;40.75;;;;;11.66;95.82;102161.31;4989072;28;45123;-77
2022/03/26 02:40:06;;;;;;;;;58.00;45.25;;;;;11.51;95.02;102136.69;4988996;28;45124;-74
2022/03/26 02:42:33;;;;;;;;;58.50;46.25;;;;;11.46;100.00;102123.28;4989238;28;45165;-75
2022/03/26 02:44:59;;;;;;;;;56.00;43.25;;;;;11.54;100.00;102142.84;4988658;28;45275;-77
2022/03/26 02:47:25;;;;;;;;;55.75;43.25;;;;;11.59;95.90;102154.38;4989214;28;45007;-74
2022/03/26 02:49:50;;;;;;;;;56.50;43.25;;;;;11.46;98.31;102125.13;4988726;28;45906;-77
2022/03/26 02:52:15;;;;;;;;;55.75;44.75;;;;;11.50;98.01;102138.50;4989282;28;45463;-76
2022/03/26 02:54:42;;;;;;;;;64.25;46.50;;;;;11.07;96.33;102060.75;4988761;28;45003;-75
2022/03/26 02:57:08;;;;;;;;;56.00;45.00;;;;;11.55;97.65;102152.75;4988843;28;45071;-74
2022/03/26 02:59:34;;;;;;;;;53.25;43.00;;;;;11.55;97.67;102158.22;4989142;28;45185;-74
2022/03/26 03:01:59;;;;;;;;;56.00;43.50;;;;;10.89;98.47;102035.28;4988389;28;45247;-76
2022/03/26 03:04:25;;;;;;;;;56.25;44.75;;;;;11.17;96.24;102086.56;4989513;28;45198;-74
2022/03/26 03:06:51;;;;;;;;;55.75;42.50;;;;;11.41;99.11;102134.41;4989039;28;45079;-75
2022/03/26 03:09:17;;;;;;;;;56.50;43.25;;;;;11.22;96.30;102097.25;4987350;28;45210;-77
2022/03/26 03:11:43;;;;;;;;;61.25;46.75;;;;;10.81;96.09;102035.66;4992260;28;46517;-76
2022/03/26 03:14:10;;;;;;;;;57.00;46.00;;;;;11.43;100.00;102145.22;4991924;28;45000;-76
2022/03/26 03:16:36;;;;;;;;;57.25;44.75;;;;;11.42;100.00;102151.63;4990547;28;44985;-75
2022/03/26 03:19:02;;;;;;;;;56.50;45.75;;;;;11.40;97.44;102148.97;4990148;28;45446;-75
2022/03/26 03:21:28;;;;;;;;;56.25;45.75;;;;;11.14;97.57;102105.75;4989167;28;45842;-76
2022/03/26 03:23:53;;;;;;;;;58.50;46.50;;;;;11.11;99.17;102106.81;4989271;28;45185;-76
2022/03/26 03:26:18;;;;;;;;;66.00;48.75;;;;;11.32;100.00;102136.69;4989208;28;45056;-75
2022/03/26 03:28:44;;;;;;;;;56.00;44.50;;;;;11.29;97.72;102150.41;4989490;28;45347;-75
2022/03/26 03:31:10;;;;;;;;;53.50;43.00;;;;;11.15;97.70;102126.56;4989016;28;45287;-76
2022/03/26 03:33:37;;;;;;;;;58.50;47.75;;;;;11.16;99.79;102148.28;4989191;28;45202;-78
2022/03/26 03:36:03;;;;;;;;;52.00;38.25;;;;;11.15;100.00;102143.81;4982597;28;45397;-75
2022/03/26 03:38:28;;;;;;;;;63.25;46.50;;;;;10.70;100.00;102081.53;4972115;28;45228;-77
2022/03/26 03:40:55;;;;;;;;;55.75;44.25;;;;;11.10;100.00;102147.69;4988881;28;45015;-75
2022/03/26 03:43:20;;;;;;;;;55.50;42.50;;;;;11.11;100.00;102150.34;4988069;28;45105;-77
2022/03/26 03:45:46;;;;;;;;;62.00;47.00;;;;;10.73;100.00;102083.22;4988075;28;45157;-76
2022/03/26 03:48:11;;;;;;;;;61.25;46.50;;;;;10.83;100.00;102098.16;4988428;28;45024;-77
2022/03/26 03:50:36;;;;;;;;;60.75;46.75;;;;;10.63;100.00;102059.16;4988060;28;45921;-77
2022/03/26 03:53:02;;;;;;;;;59.00;47.75;;;;;10.84;100.00;102091.75;4970727;28;45241;-75
2022/03/26 03:55:28;;;;;;;;;56.00;42.25;;;;;11.13;100.00;102142.09;4988452;28;45274;-75
2022/03/26 03:57:53;;;;;;;;;54.75;44.25;;;;;10.83;100.00;102090.88;4987911;28;45099;-75
2022/03/26 04:00:20;;;;;;;;;56.50;46.25;;;;;11.14;100.00;102149.31;4988073;28;45803;-75
2022/03/26 04:02:45;;;;;;;;;51.25;42.25;;;;;11.17;100.00;102160.94;4988020;28;45249;-77
2022/03/26 04:05:11;;;;;;;;;54.75;45.50;;;;;11.18;100.00;102165.44;4988480;28;45568;-75
2022/03/26 04:07:37;;;;;;;;;62.00;47.50;;;;;11.12;100.00;102151.22;4987681;28;45098;-77
2022/03/26 04:10:05;;;;;;;;;51.25;42.25;;;;;10.87;100.00;102105.22;4987773;28;45568;-76
2022/03/26 04:12:30;;;;;;;;;57.50;45.00;;;;;11.01;100.00;102134.53;4987768;28;45308;-78
2022/03/26 04:14:55;;;;;;;;;56.00;45.50;;;;;11.20;100.00;102161.75;4988104;28;45372;-75
2022/03/26 04:17:21;;;;;;;;;57.25;45.50;;;;;11.10;100.00;102145.88;4987392;28;45004;-76
2022/03/26 04:19:46;;;;;;;;;53.25;45.50;;;;;11.18;100.00;102161.81;4988241;28;45059;-78
2022/03/26 04:22:11;;;;;;;;;61.50;49.00;;;;;11.17;100.00;102173.66;4987904;28;45031;-75
2022/03/26 04:24:40;;;;;;;;;56.00;44.25;;;;;11.18;100.00;102172.72;4987718;28;45063;-76
2022/03/26 04:27:06;;;;;;;;;56.25;44.25;;;;;11.17;100.00;102162.78;4987465;28;45291;-77
2022/03/26 04:29:31;;;;;;;;;61.75;46.00;;;;;10.73;100.00;102091.38;4987356;28;45400;-77
2022/03/26 04:31:56;;;;;;;;;58.25;46.00;;;;;10.75;100.00;102097.66;4988017;28;45259;-76
2022/03/26 04:34:22;;;;;;;;;52.25;42.25;;;;;11.05;100.00;102152.44;4991170;28;45115;-77
2022/03/26 04:36:48;;;;;;;;;54.75;44.50;;;;;11.03;98.80;102154.38;4991225;28;45047;-76
2022/03/26 04:39:13;;;;;;;;;58.50;48.25;;;;;11.07;99.63;102164.16;4973435;28;46001;-75
2022/03/26 04:41:38;;;;;;;;;60.50;46.50;;;;;11.06;100.00;102173.28;4991407;28;45146;-76
2022/03/26 04:44:05;;;;;;;;;55.50;45.00;;;;;9.67;100.00;101940.34;4990514;28;44983;-75
2022/03/26 04:46:30;;;;;;;;;61.00;48.00;;;;;10.88;99.93;102145.97;4990931;28;45270;-77
2022/03/26 04:48:55;;;;;;;;;54.75;42.25;;;;;10.66;100.00;102101.66;4989513;28;47400;-76
2022/03/26 04:51:21;;;;;;;;;58.00;46.75;;;;;10.39;100.00;102074.78;4990737;28;45577;-75
2022/03/26 04:53:47;;;;;;;;;65.50;46.50;;;;;10.85;100.00;102145.25;4990900;28;45324;-76
2022/03/26 04:56:12;;;;;;;;;56.75;43.00;;;;;9.62;100.00;101935.97;4990485;28;45408;-75
2022/03/26 04:58:38;;;;;;;;;56.25;44.00;;;;;10.55;100.00;102094.00;4990802;28;45079;-75
2022/03/26 05:01:04;;;;;;;;;58.50;44.50;;;;;10.85;100.00;102143.41;4990052;28;45241;-75
2022/03/26 05:03:29;;;;;;;;;54.00;40.25;;;;;10.77;100.00;102134.69;4989755;28;45305;-75
2022/03/26 05:05:55;;;;;;;;;59.75;44.00;;;;;10.69;100.00;102127.81;4990460;28;45545;-76
2022/03/26 05:08:20;;;;;;;;;47.00;40.00;;;;;10.90;100.00;102167.69;4990007;28;45566;-74
2022/03/26 05:10:46;;;;;;;;;56.25;44.00;;;;;10.56;100.00;102114.78;4990090;28;45330;-75
2022/03/26 05:13:11;;;;;;;;;54.25;42.00;;;;;10.64;100.00;102134.38;4990557;28;45087;-75
2022/03/26 05:15:36;;;;;;;;;58.25;47.50;;;;;10.80;100.00;102160.91;4988576;28;45035;-78
2022/03/26 05:18:03;;;;;;;;;64.00;49.75;;;;;10.51;100.00;102129.56;4990125;28;45611;-76
2022/03/26 05:20:28;;;;;;;;;58.75;46.50;;;;;10.83;100.00;102183.38;4977675;28;45212;-76
2022/03/26 05:22:54;;;;;;;;;54.00;43.25;;;;;10.82;100.00;102183.47;4990361;28;45310;-76
2022/03/26 05:25:20;;;;;;;;;56.75;44.75;;;;;10.13;100.00;102070.44;4990681;28;45252;-75
2022/03/26 05:27:50;;;;;;;;;62.25;48.00;;;;;10.78;100.00;102181.81;4972715;28;46377;-75
2022/03/26 05:30:16;;;;;;;;;59.75;47.75;;;;;10.63;100.00;102167.94;4990350;28;45212;-75
2022/03/26 05:32:42;;;;;;;;;61.00;47.50;;;;;10.44;100.00;102144.34;4999870;28;45327;-76
2022/03/26 05:35:13;;;;;;;;;57.25;45.75;;;;;10.36;100.00;102142.00;5001282;28;44904;-76
2022/03/26 05:37:43;;;;;;;;;62.00;45.00;;;;;10.71;100.00;102207.53;4994366;28;45533;-78
2022/03/26 05:40:10;;;;;;;;;56.50;45.25;;;;;10.44;100.00;102167.03;4993927;28;45120;-75
2022/03/26 05:42:36;;;;;;;;;56.25;45.00;;;;;10.68;100.00;102215.81;4991299;28;45130;-76
2022/03/26 05:45:06;;;;;;;;;61.50;46.75;;;;;10.68;100.00;102211.25;4991520;28;45099;-74
2022/03/26 05:47:33;;;;;;;;;65.00;49.00;;;;;10.67;100.00;102208.63;4992890;28;45086;-76
2022/03/26 05:49:58;;;;;;;;;59.50;45.50;;;;;9.87;100.00;102079.72;4992811;28;45264;-77
2022/03/26 05:52:24;;;;;;;;;57.75;46.25;;;;;10.44;100.00;102176.97;4997036;28;45020;-77
2022/03/26 05:54:49;;;;;;;;;63.50;46.25;;;;;10.00;100.00;102098.25;4994505;28;45099;-75
2022/03/26 05:57:15;;;;;;;;;63.25;48.25;;;;;10.60;100.00;102202.56;4995292;28;45576;-77
2022/03/26 05:59:40;;;;;;;;;61.00;46.25;;;;;10.24;100.00;102131.63;4989729;28;45029;-76
2022/03/26 06:02:06;;;;;;;;;61.25;48.50;;;;;10.13;100.00;102126.63;4989531;28;45134;-76
2022/03/26 06:04:31;;;;;;;;;66.75;50.25;;;;;10.60;100.00;102206.19;4989363;28;45257;-76
2022/03/26 06:06:56;;;;;;;;;59.00;47.75;;;;;10.60;100.00;102210.75;4989323;28;45118;-77
2022/03/26 06:09:22;;;;;;;;;59.50;47.50;;;;;10.58;100.00;102210.78;4989683;28;45244;-79
2022/03/26 06:11:47;;;;;;;;;61.75;48.50;;;;;10.30;100.00;102164.91;4990559;28;45323;-79
2022/03/26 06:14:13;;;;;;;;;67.00;49.50;;;;;10.46;100.00;102197.72;4990324;28;45125;-81
2022/03/26 06:16:38;;;;;;;;;59.50;46.50;;;;;10.56;100.00;102226.28;4989782;28;45173;-77
2022/03/26 06:19:03;;;;;;;;;63.00;47.25;;;;;10.55;100.00;102232.69;4989291;28;45107;-78
2022/03/26 06:21:29;;;;;;;;;71.00;51.75;;;;;10.56;100.00;102233.56;4971119;28;45246;-76
2022/03/26 06:23:58;;;;;;;;;64.50;45.25;;;;;10.55;100.00;102234.53;4989604;28;45329;-75
2022/03/26 06:26:25;;;;;;;;;54.75;44.25;;;;;10.54;100.00;102233.66;4988316;28;45680;-76
2022/03/26 06:28:51;;;;;;;;;60.25;48.00;;;;;10.51;100.00;102243.75;4988805;28;45125;-76
2022/03/26 06:31:17;;;;;;;;;59.25;44.75;;;;;9.93;100.00;102140.19;4988353;28;45261;-76
2022/03/26 06:33:42;;;;;;;;;65.25;48.50;;;;;10.10;100.00;102182.00;4988621;28;45284;-79
2022/03/26 06:36:07;;;;;;;;;70.00;51.25;;;;;10.38;100.00;102229.78;4988954;28;45850;-80
2022/03/26 06:38:38;;;;;;;;;60.00;45.50;;;;;10.36;100.00;102237.13;4987368;28;45109;-77
2022/03/26 06:41:13;;;;;;;;;62.50;49.75;;;;;10.45;100.00;102260.34;4979964;28;45851;-76
2022/03/26 06:43:40;;;;;;;;;64.75;50.00;;;;;10.21;100.00;102210.56;4987440;28;45107;-75
2022/03/26 06:46:05;;;;;;;;;65.00;51.75;;;;;10.13;100.00;102205.44;4987998;28;45769;-75
2022/03/26 06:48:32;;;;;;;;;67.50;52.25;;;;;10.44;100.00;102259.47;4982531;28;45488;-77
2022/03/26 06:51:00;;;;;;;;;62.00;46.75;;;;;10.41;100.00;102258.69;4988678;28;45320;-76
2022/03/26 06:53:26;;;;;;;;;61.50;49.25;;;;;10.26;100.00;102228.47;4989005;28;45159;-75
2022/03/26 06:55:51;;;;;;;;;65.25;51.00;;;;;10.42;100.00;102258.63;4987772;28;45624;-77
2022/03/26 06:58:17;;;;;;;;;57.25;47.00;;;;;10.46;100.00;102252.13;4985353;28;45071;-77
2022/03/26 07:00:42;;;;;;;;;57.75;47.00;;;;;10.53;100.00;102264.50;4986414;28;45345;-80
2022/03/26 07:03:08;;;;;;;;;63.50;50.00;;;;;10.53;100.00;102260.88;4986717;28;45266;-77
2022/03/26 07:05:33;;;;;;;;;63.25;47.00;;;;;10.36;100.00;102246.19;4989380;28;45518;-76
2022/03/26 07:07:59;;;;;;;;;65.50;47.75;;;;;10.31;100.00;102231.00;4988345;28;45269;-75
2022/03/26 07:10:24;;;;;;;;;62.25;49.25;;;;;10.44;100.00;102258.53;4988990;28;45507;-75
2022/03/26 07:12:49;;;;;;;;;62.00;46.75;;;;;10.44;100.00;102258.53;4987963;28;45024;-75
2022/03/26 07:15:15;;;;;;;;;59.00;40.25;;;;;10.52;100.00;102284.47;4971067;28;46987;-76
2022/03/26 07:17:44;;;;;;;;;64.50;47.75;;;;;10.54;100.00;102279.88;4988489;28;45133;-77
2022/03/26 07:20:10;;;;;;;;;65.75;47.25;;;;;10.51;100.00;102281.84;4988769;28;45169;-75
2022/03/26 07:22:35;;;;;;;;;65.25;50.75;;;;;10.51;100.00;102290.88;4989460;28;45214;-76
2022/03/26 07:25:02;;;;;;;;;63.00;50.75;;;;;10.51;100.00;102293.59;4987519;28;46244;-80
2022/03/26 07:27:34;;;;;;;;;64.25;51.00;;;;;10.53;100.00;102290.78;4985869;28;45298;-81
2022/03/26 07:30:01;;;;;;;;;56.50;43.50;;;;;10.34;100.00;102256.25;4987887;28;45314;-80
2022/03/26 07:32:26;;;;;;;;;64.00;49.00;;;;;10.17;100.00;102223.41;4987792;28;45146;-81
2022/03/26 07:34:53;;;;;;;;;58.00;46.00;;;;;10.41;100.00;102265.03;4987130;28;45776;-83
2022/03/26 07:37:18;;;;;;;;;63.00;49.00;;;;;10.21;100.00;102235.03;4987902;28;45125;-81
2022/03/26 07:39:44;;;;;;;;;62.50;47.25;;;;;10.54;100.00;102285.31;4988125;28;44983;-74
2022/03/26 07:42:09;;;;;;;;;56.50;45.00;;;;;9.89;100.00;102166.63;4987658;28;45120;-80
2022/03/26 07:44:35;;;;;;;;;62.00;47.75;;;;;10.47;100.00;102262.03;4987124;28;45142;-80
2022/03/26 07:47:01;;;;;;;;;63.00;46.75;;;;;10.71;100.00;102294.59;4970531;28;45036;-75
2022/03/26 07:49:26;;;;;;;;;59.25;46.75;;;;;10.64;100.00;102286.69;4970712;28;45146;-76
2022/03/26 07:51:52;;;;;;;;;61.00;46.25;;;;;10.76;100.00;102298.88;4988681;28;45171;-77
2022/03/26 07:54:17;;;;;;;;;60.00;45.75;;;;;10.63;100.00;102281.28;4988459;28;45213;-75
2022/03/26 07:56:43;;;;;;;;;58.00;40.00;;;;;10.70;100.00;102285.53;4988155;28;45083;-77
2022/03/26 07:59:08;;;;;;;;;59.75;45.25;;;;;10.82;100.00;102287.72;4989088;28;45120;-78
2022/03/26 08:01:34;;;;;;;;;56.25;42.50;;;;;10.84;100.00;102299.41;4988331;28;45129;-81
2022/03/26 08:03:59;;;;;;;;;60.25;45.25;;;;;10.51;100.00;102244.66;4988384;28;45127;-80
2022/03/26 08:06:25;;;;;;;;;54.00;43.50;;;;;10.63;100.00;102251.38;4988577;28;45126;-80
2022/03/26 08:08:50;;;;;;;;;54.75;42.00;;;;;10.63;100.00;102251.38;4992026;28;45023;-77
2022/03/26 08:11:16;;;;;;;;;60.50;48.25;;;;;10.81;100.00;102277.78;4991804;28;45316;-75
2022/03/26 08:13:42;;;;;;;;;54.50;44.25;;;;;10.99;100.00;102302.41;4991816;28;45685;-76
2022/03/26 08:16:08;;;;;;;;;53.50;43.75;;;;;10.66;100.00;102232.22;4992089;28;45296;-76
2022/03/26 08:18:34;;;;;;;;;52.00;42.00;;;;;11.11;100.00;102300.06;4991472;28;45133;-78
2022/03/26 08:21:00;;;;;;;;;53.50;41.75;;;;;11.14;100.00;102294.44;4991163;28;45252;-76
2022/03/26 08:23:26;;;;;;;;;58.00;45.50;;;;;11.16;99.96;102292.56;4991740;28;45516;-76
2022/03/26 08:28:36;;;;;;;;;54.25;43.00;;;;;11.27;98.17;102299.38;4991307;28;45023;-79
2022/03/26 08:31:02;;;;;;;;;59.00;43.75;;;;;11.28;96.01;102284.78;4991325;28;45146;-75
2022/03/26 08:33:27;;;;;;;;;52.25;42.50;;;;;11.48;99.70;102311.13;4991332;28;45635;-77
2022/03/26 08:35:52;;;;;;;;;57.50;42.75;;;;;11.43;96.05;102290.41;4990797;28;45162;-75
2022/03/26 08:38:18;;;;;;;;;57.75;43.50;;;;;11.63;97.79;102304.97;4991657;28;45039;-76
2022/03/26 08:40:43;;;;;;;;;53.25;42.75;;;;;11.68;95.68;102301.06;4991846;28;45077;-77
2022/03/26 08:43:08;;;;;;;;;52.75;44.50;;;;;11.28;93.08;102227.63;4992282;28;45263;-77
2022/03/26 08:45:40;;;;;;;;;47.25;39.00;;;;;11.77;90.76;102304.31;5003302;28;44775;-78
2022/03/26 08:48:05;;;;;;;;;53.75;40.75;;;;;11.61;89.00;102272.34;4996309;28;44719;-78
2022/03/26 08:50:31;;;;;;;;;49.75;39.75;;;;;11.83;91.53;102295.88;4991000;28;45007;-77
2022/03/26 08:52:56;;;;;;;;;46.75;38.00;;;;;11.90;85.64;102297.34;4972528;28;45305;-79
2022/03/26 08:55:25;;;;;;;;;49.50;39.00;;;;;11.76;88.21;102269.84;4990770;28;45136;-77
2022/03/26 08:57:50;;;;;;;;;49.75;38.00;;;;;11.93;88.77;102284.47;4989159;28;45192;-75
2022/03/26 09:00:16;;;;;;;;;49.00;36.50;;;;;12.11;87.93;102309.94;4990994;28;45297;-79
2022/03/26 09:02:42;;;;;;;;;52.00;39.50;;;;;12.21;87.99;102304.91;4990286;28;45244;-74
2022/03/26 09:05:08;;;;;;;;;54.75;41.00;;;;;11.95;85.20;102248.94;4990348;28;45086;-75
2022/03/26 09:07:34;;;;;;;;;55.50;41.75;;;;;12.31;87.56;102314.41;4972989;28;45113;-76
2022/03/26 09:10:00;;;;;;;;;51.25;39.50;;;;;11.90;83.29;102224.66;4989643;28;45039;-76
2022/03/26 09:12:25;;;;;;;;;53.25;40.75;;;;;12.44;86.48;102307.41;4989215;28;45140;-77
2022/03/26 09:14:51;;;;;;;;;52.50;39.75;;;;;12.30;82.80;102277.19;4990263;28;45067;-75
2022/03/26 09:17:16;;;;;;;;;49.00;39.00;;;;;12.05;82.51;102214.81;4990329;28;45186;-75
2022/03/26 09:19:42;;;;;;;;;50.00;40.75;;;;;12.60;82.55;102304.78;4989686;28;45085;-76
2022/03/26 09:22:07;;;;;;;;;53.50;40.00;;;;;12.40;80.21;102267.59;4990282;28;45510;-77
2022/03/26 09:24:33;;;;;;;;;50.75;40.25;;;;;12.73;80.42;102297.75;4990695;28;45226;-75
2022/03/26 09:26:58;;;;;;;;;44.25;37.25;;;;;12.79;79.86;102299.28;4990029;28;45281;-76
2022/03/26 09:29:23;;;;;;;;;48.25;36.50;;;;;12.36;86.02;102221.47;4990221;28;45217;-75
2022/03/26 09:31:49;;;;;;;;;52.50;40.75;;;;;11.88;80.05;102128.47;4990159;28;45121;-75
2022/03/26 09:34:14;;;;;;;;;47.50;38.75;;;;;12.95;80.24;102302.97;4989875;28;45150;-76
2022/03/26 09:36:39;;;;;;;;;50.00;39.25;;;;;12.99;81.57;102299.13;4990052;28;45477;-76
2022/03/26 09:39:05;;;;;;;;;51.00;40.25;;;;;13.00;80.18;102291.81;4990367;28;45107;-75
2022/03/26 09:41:34;;;;;;;;;52.75;38.75;;;;;12.58;78.63;102211.22;4990169;28;45156;-77
2022/03/26 09:43:59;;;;;;;;;43.75;36.00;;;;;12.93;79.05;102263.09;4991953;28;45117;-77
2022/03/26 09:46:26;;;;;;;;;50.50;39.50;;;;;12.79;78.02;102231.03;4991081;28;45086;-75
2022/03/26 09:48:52;;;;;;;;;53.00;40.00;;;;;13.14;78.33;102278.31;4990407;28;45043;-76
2022/03/26 09:51:24;;;;;;;;;51.00;40.50;;;;;13.20;77.28;102283.44;4989849;28;45606;-76
2022/03/26 09:53:53;;;;;;;;;52.00;39.00;;;;;12.98;83.25;102225.50;4989566;28;45155;-75
2022/03/26 09:56:20;;;;;;;;;49.00;37.75;;;;;13.43;78.39;102295.00;4989867;28;45098;-76
2022/03/26 09:58:45;;;;;;;;;48.75;40.50;;;;;13.17;76.76;102247.22;4989851;28;45194;-76
2022/03/26 10:01:11;;;;;;;;;57.00;43.50;;;;;13.37;76.70;102265.28;4989928;28;45598;-77
2022/03/26 10:03:39;;;;;;;;;42.25;36.75;;;;;13.26;76.75;102232.22;4989842;28;45170;-77
2022/03/26 10:06:09;;;;;;;;;52.50;39.00;;;;;13.44;75.11;102255.81;4989419;28;45034;-77
2022/03/26 10:08:36;;;;;;;;;53.75;42.25;;;;;13.71;72.71;102291.66;4989450;28;45107;-77
2022/03/26 10:11:02;;;;;;;;;44.25;38.00;;;;;13.39;74.84;102222.41;4971547;28;47070;-76
2022/03/26 10:13:35;;;;;;;;;53.75;42.00;;;;;13.82;72.01;102283.72;4989247;28;45227;-76
2022/03/26 10:16:04;;;;;;;;;52.00;41.00;;;;;13.90;71.26;102286.03;4989502;28;45325;-75
2022/03/26 10:18:37;;;;;;;;;52.50;41.00;;;;;13.95;69.60;102293.00;4989510;28;45236;-75
2022/03/26 10:21:06;;;;;;;;;54.75;42.75;;;;;14.04;70.91;102291.63;4989563;28;45221;-75
2022/03/26 10:23:32;;;;;;;;;50.50;37.50;;;;;13.40;70.14;102158.59;4989336;28;45281;-76
2022/03/26 10:26:11;;;;;;;;;52.00;40.00;;;;;14.05;70.00;102267.88;4990044;28;45158;-77
2022/03/26 10:28:40;;;;;;;;;52.00;41.25;;;;;13.89;72.61;102241.41;4989383;28;45258;-76
2022/03/26 10:34:08;;;;;;;;;50.00;40.00;;;;;14.30;66.41;102294.72;4988971;28;45178;-79
2022/03/26 10:36:53;;;;;;;;;51.75;40.25;;;;;14.18;66.24;102247.03;4971284;28;45318;-81
2022/03/26 10:39:23;;;;;;;;;49.75;40.75;;;;;14.43;66.10;102277.47;4989349;28;45115;-81
2022/03/26 10:41:50;;;;;;;;;51.75;38.50;;;;;14.38;66.09;102260.44;4988918;28;46191;-81
2022/03/26 10:44:17;;;;;;;;;41.50;36.50;;;;;13.86;69.90;102165.03;4973474;28;45192;-79
2022/03/26 10:46:46;;;;;;;;;51.25;41.00;;;;;14.54;66.94;102275.00;4994053;28;45106;-77
2022/03/26 10:49:13;;;;;;;;;55.00;42.25;;;;;14.62;63.38;102270.94;4997431;28;45215;-79
2022/03/26 10:51:41;;;;;;;;;50.75;42.50;;;;;14.64;61.99;102263.50;4997860;28;45059;-77
2022/03/26 10:54:15;;;;;;;;;49.50;41.50;;;;;14.68;59.51;102255.03;4977089;28;45295;-76
2022/03/26 10:56:41;;;;;;;;;57.75;43.75;;;;;14.89;58.33;102263.78;4990791;28;45311;-75
2022/03/26 10:59:08;;;;;;;;;54.75;42.50;;;;;14.85;59.61;102236.69;4988607;28;45201;-85
2022/03/26 11:01:34;;;;;;;;;52.75;41.50;;;;;14.93;57.76;102246.19;4986645;28;45396;-81
2022/03/26 11:04:00;;;;;;;;;47.25;39.50;;;;;14.88;59.75;102209.13;4987802;28;45114;-80
2022/03/26 11:06:26;;;;;;;;;46.25;37.75;;;;;15.10;56.51;102236.03;4989082;28;45197;-80
2022/03/26 11:08:59;;;;;;;;;51.00;40.25;;;;;14.79;55.86;102166.75;4971239;28;45247;-81